Latest Weather Observations for Pallamana

IDS60901

Issued at 3:05 pm CDT Monday 20 October 2014 (issued every 10 minutes, with the page automatically refreshed every 10 minutes)

About weather observations | Map of Adelaide area stations | Latest observations for Adelaide area | Other Formats
Station Details ID: 024584 Name: PALLAMANA AERODROME Lat: -35.06 Lon: 139.23 Height: 45.0 m
Data from the previous 72 hours. | See also: Recent months at Pallamana
Date/Time
CDT
Tmp

°C
App
Tmp
°C
Dew
Point
°C
Rel
Hum
%
Delta-T

°C
Wind Press
QNH
hPa
Press
MSL
hPa
Rain
since
9 am
mm
Dir
 
Spd
km/h
Gust
km/h
Spd
kts
Gust
kts
20/03:00pm 28.9 25.0 5.4 22 12.2 E 15 22 8 12 1022.7 1022.7 0.0
20/02:30pm 27.5 22.6 5.3 24 11.4 NE 20 26 11 14 1023.2 1023.2 0.0
20/02:00pm 26.6 23.7 6.5 27 10.5 E 11 24 6 13 1023.8 1023.8 0.0
20/01:30pm 25.7 22.5 7.0 30 9.8 E 13 20 7 11 1024.3 1024.3 0.0
20/01:00pm 24.1 20.7 7.7 35 8.7 E 15 22 8 12 1024.6 1024.6 0.0
20/12:30pm 22.7 19.7 7.7 38 7.8 E 13 22 7 12 1025.1 1025.1 0.0
20/12:00pm 21.7 18.8 8.1 41 7.1 NE 13 22 7 12 1025.7 1025.7 0.0
20/11:30am 20.3 17.5 8.4 46 6.2 NE 13 24 7 13 1026.1 1026.1 0.0
20/11:00am 18.3 15.9 8.8 54 4.9 E 11 19 6 10 1026.7 1026.7 0.0
20/10:30am 17.3 14.5 8.7 57 4.4 ENE 13 19 7 10 1027.0 1027.0 0.0
20/10:00am 16.1 13.7 8.6 61 3.8 ENE 11 17 6 9 1027.4 1027.4 0.0
20/09:30am 15.1 13.1 8.8 66 3.2 E 9 15 5 8 1027.6 1027.6 0.0
20/09:00am 14.5 12.5 8.7 68 2.9 SE 9 15 5 8 1027.7 1027.7 0.0
20/08:30am 13.3 11.0 8.9 74 2.2 SE 11 17 6 9 1027.7 1027.7 0.0
20/08:00am 12.3 10.9 9.7 84 1.3 S 7 9 4 5 1027.5 1027.5 0.0
20/07:30am 10.9 9.6 9.9 93 0.5 SSW 7 9 4 5 1027.2 1027.2 0.0
20/07:00am 9.0 6.8 7.9 93 0.5 SW 9 11 5 6 1027.0 1027.0 0.0
20/06:30am 8.9 6.8 8.1 95 0.4 SW 9 11 5 6 1026.8 1026.8 0.0
20/06:00am 9.1 6.9 7.8 92 0.6 SW 9 13 5 7 1026.5 1026.5 0.0
20/05:30am 9.5 6.6 8.3 92 0.6 SW 13 15 7 8 1026.3 1026.3 0.0
20/05:00am 9.5 7.0 8.3 92 0.6 SW 11 13 6 7 1025.9 1025.9 0.0
20/04:30am 10.0 7.6 8.6 91 0.7 WSW 11 13 6 7 1025.7 1025.7 0.0
20/04:00am 10.6 7.9 9.0 90 0.8 SW 13 17 7 9 1025.5 1025.5 0.0
20/03:30am 11.1 8.4 9.1 87 1.0 SW 13 15 7 8 1025.6 1025.6 0.0
20/03:00am 11.1 8.5 9.3 89 0.9 SW 13 17 7 9 1025.7 1025.7 0.0
20/02:30am 11.4 8.5 9.6 89 0.9 SW 15 17 8 9 1025.9 1025.9 0.0
20/02:00am 11.7 8.9 10.1 90 0.8 SW 15 17 8 9 1025.9 1025.9 0.0
20/01:30am 12.1 9.4 10.5 90 0.8 SW 15 19 8 10 1025.9 1025.9 0.0
20/01:00am 12.5 9.7 11.4 93 0.6 SW 17 20 9 11 1025.8 1025.8 0.0
20/12:30am 13.1 10.0 11.6 91 0.8 SW 19 24 10 13 1025.8 1025.8 0.0
20/12:00am 13.5 9.9 11.8 89 0.9 SW 22 28 12 15 1025.7 1025.7 0.0
 
Date/Time
CDT
Tmp

°C
App
Tmp
°C
Dew
Point
°C
Rel
Hum
%
Delta-T

°C
Wind Press
QNH
hPa
Press
MSL
hPa
Rain
since
9 am
mm
Dir
 
Spd
km/h
Gust
km/h
Spd
kts
Gust
kts
19/11:30pm 13.6 10.0 11.9 89 0.9 WSW 22 28 12 15 1025.5 1025.5 0.0
19/11:00pm 13.6 11.0 12.1 91 0.8 SW 17 24 9 13 1025.2 1025.2 0.0
19/10:30pm 13.7 9.8 12.0 89 0.9 WSW 24 32 13 17 1025.3 1025.3 0.0
19/10:00pm 13.9 9.9 11.8 87 1.1 SW 24 30 13 16 1025.2 1025.2 0.0
19/09:30pm 13.9 9.8 11.5 85 1.3 SW 24 32 13 17 1024.9 1024.9 0.0
19/09:00pm 14.0 9.5 11.4 84 1.4 WSW 26 33 14 18 1024.8 1024.8 0.0
19/08:30pm 14.5 10.4 11.5 82 1.6 WSW 24 33 13 18 1024.4 1024.4 0.0
19/08:00pm 14.9 11.2 11.5 80 1.8 SW 22 28 12 15 1024.0 1024.0 0.0
19/07:30pm 15.5 11.8 11.6 77 2.1 SSW 22 30 12 16 1024.1 1024.1 0.0
19/07:00pm 16.2 10.7 11.8 75 2.4 SSW 32 43 17 23 1023.6 1023.6 0.0
19/06:30pm 17.3 11.8 12.0 71 2.9 SSW 32 46 17 25 1023.2 1023.2 0.0
19/06:00pm 17.4 11.4 12.1 71 2.9 SSW 35 50 19 27 1022.7 1022.7 0.0
19/05:30pm 18.1 11.5 12.5 70 3.1 SSW 39 54 21 29 1022.2 1022.2 0.0
19/05:00pm 19.9 13.4 12.8 63 4.0 SSW 39 50 21 27 1021.6 1021.6 0.0
19/04:30pm 22.7 15.7 12.5 52 5.8 SSW 41 56 22 30 1020.9 1020.9 0.0
19/04:22pm 24.1 17.9 11.5 45 7.1 SSW 35 56 19 30 1020.7 1020.7 0.0
19/04:00pm 26.6 20.3 11.0 37 8.8 SSW 35 44 19 24 1020.2 1020.2 0.0
19/03:30pm 28.7 21.7 7.0 25 11.6 SW 33 43 18 23 1019.8 1019.8 0.0
19/03:00pm 29.2 22.8 8.4 27 11.4 SSW 32 43 17 23 1019.7 1019.7 0.0
19/02:30pm 33.7 25.1 -8.2 6 17.9 W 30 39 16 21 1019.6 1019.6 0.0
19/02:00pm 33.5 25.7 -7.5 7 17.7 W 26 37 14 20 1019.7 1019.7 0.0
19/01:30pm 32.4 24.1 -8.5 6 17.2 W 28 41 15 22 1019.7 1019.7 0.0
19/01:00pm 33.0 24.3 -9.0 6 17.6 W 30 43 16 23 1019.7 1019.7 0.0
19/12:30pm 33.1 24.0 -9.3 6 17.7 WNW 32 43 17 23 1019.9 1019.9 0.0
19/12:00pm 32.9 23.7 -10.3 5 17.7 WNW 32 44 17 24 1020.1 1020.1 0.0
19/11:30am 31.3 22.0 -9.5 6 16.7 WNW 33 43 18 23 1020.2 1020.2 0.0
19/11:00am 31.0 22.4 -8.5 7 16.4 NW 30 43 16 23 1020.2 1020.2 0.0
19/10:30am 30.7 21.0 -9.8 6 16.4 NW 35 50 19 27 1020.2 1020.2 0.0
19/10:00am 29.9 21.1 -10.2 7 16.0 NW 30 44 16 24 1020.4 1020.4 0.0
19/09:54am 30.1 21.3 -10.1 7 16.1 NW 30 39 16 21 1020.5 1020.5 0.0
19/09:30am 26.1 22.0 -0.4 17 12.2 NNE 11 17 6 9 1020.6 1020.6 0.0
19/09:00am 20.9 16.8 -0.4 24 9.4 NNE 11 15 6 8 1020.6 1020.6 0.0
19/08:30am 18.2 14.7 1.1 31 7.6 N 9 11 5 6 1020.5 1020.5 0.0
19/08:00am 15.8 12.4 1.7 38 6.2 N 9 11 5 6 1020.1 1020.1 0.0
19/07:30am 13.4 10.7 2.8 48 4.7 N 6 9 3 5 1019.9 1019.9 0.0
19/07:00am 12.7 9.8 2.6 50 4.4 NNW 7 11 4 6 1019.5 1019.5 0.0
19/06:30am 11.9 10.1 0.9 47 4.6 CALM 0 7 0 4 1018.8 1018.8 0.0
19/06:00am 13.4 10.4 0.9 42 5.3 N 6 7 3 4 1018.4 1018.4 0.0
19/05:30am 11.7 8.6 1.2 48 4.4 N 7 9 4 5 1018.1 1018.0 0.0
19/05:00am 9.7 6.1 0.6 53 3.7 N 9 11 5 6 1018.3 1018.3 0.0
19/04:30am 11.3 8.0 0.0 45 4.6 N 7 9 4 5 1018.4 1018.4 0.0
19/04:00am 14.1 10.3 -0.7 36 6.1 NW 9 15 5 8 1018.4 1018.4 0.0
19/03:30am 12.0 8.3 -0.3 42 5.0 NNW 9 13 5 7 1018.8 1018.8 0.0
19/03:00am 12.5 8.9 0.5 43 5.0 WNW 9 13 5 7 1018.7 1018.7 0.0
19/02:30am 11.1 8.0 1.3 51 4.1 W 7 9 4 5 1018.7 1018.7 0.0
19/02:00am 11.9 9.0 1.2 48 4.5 WNW 6 9 3 5 1019.0 1019.0 0.0
19/01:30am 13.3 10.3 2.0 46 4.9 WNW 7 9 4 5 1019.3 1019.3 0.0
19/01:00am 13.6 10.0 0.5 40 5.5 NW 9 11 5 6 1019.8 1019.8 0.0
19/12:30am 11.9 9.5 -0.1 43 4.9 WSW 2 9 1 5 1020.1 1020.1 0.0
19/12:00am 12.2 9.2 0.7 45 4.8 SW 6 11 3 6 1020.3 1020.3 0.0
 
Date/Time
CDT
Tmp

°C
App
Tmp
°C
Dew
Point
°C
Rel
Hum
%
Delta-T

°C
Wind Press
QNH
hPa
Press
MSL
hPa
Rain
since
9 am
mm
Dir
 
Spd
km/h
Gust
km/h
Spd
kts
Gust
kts
18/11:30pm 14.0 11.4 -1.6 34 6.3 SSW 2 6 1 3 1020.3 1020.3 0.0
18/11:00pm 14.8 12.3 -1.3 33 6.6 SSW 2 7 1 4 1020.4 1020.4 0.0
18/10:30pm 17.0 13.7 0.4 32 7.2 SSW 7 9 4 5 1020.4 1020.4 0.0
18/10:00pm 14.2 11.1 0.1 38 5.9 SSE 6 20 3 11 1020.3 1020.3 0.0
18/09:30pm 16.7 14.8 0.6 33 7.0 CALM 0 0 0 0 1020.3 1020.3 0.0
18/09:00pm 17.4 15.3 -0.7 29 7.7 CALM 0 0 0 0 1020.1 1020.1 0.0
18/08:30pm 20.9 18.9 0.0 24 9.3 CALM 0 0 0 0 1019.8 1019.8 0.0
18/08:00pm 22.5 20.8 1.7 25 9.7 CALM 0 6 0 3 1019.4 1019.4 0.0
18/07:30pm 25.2 21.8 -0.8 18 11.8 SW 7 7 4 4 1019.0 1019.0 0.0
18/07:00pm 29.3 24.3 -4.3 11 14.8 W 13 19 7 10 1018.8 1018.8 0.0
18/06:30pm 31.2 25.2 -6.3 8 16.2 W 17 20 9 11 1018.6 1018.6 0.0
18/06:00pm 31.2 24.9 -6.3 8 16.2 W 19 28 10 15 1018.5 1018.5 0.0
18/05:30pm 30.6 24.7 -5.3 9 15.7 W 17 24 9 13 1018.4 1018.4 0.0
18/05:00pm 31.4 24.6 -5.5 9 16.2 W 22 30 12 16 1018.3 1018.3 0.0
18/04:30pm 31.5 24.4 -4.6 9 16.1 W 24 30 13 16 1018.3 1018.3 0.0
18/04:00pm 31.6 24.5 -4.8 9 16.2 WNW 24 32 13 17 1018.3 1018.3 0.0
18/03:30pm 34.2 26.7 -8.9 6 18.3 NW 24 37 13 20 1018.4 1018.4 0.0
18/03:00pm 34.0 26.7 -6.2 7 17.8 NNW 24 39 13 21 1018.6 1018.6 0.0
18/02:30pm 33.0 25.9 -4.8 8 17.0 N 24 33 13 18 1018.9 1018.9 0.0
18/02:00pm 33.7 26.3 -7.4 7 17.8 NNW 24 50 13 27 1019.3 1019.3 0.0
18/01:30pm 33.5 26.3 -5.5 8 17.4 NNW 24 37 13 20 1019.3 1019.3 0.0
18/01:00pm 31.5 25.3 -3.5 10 15.9 NNW 20 28 11 15 1019.7 1019.7 0.0
18/12:30pm 31.5 24.2 -5.9 8 16.3 NNW 24 37 13 20 1020.2 1020.2 0.0
18/12:00pm 32.1 25.1 -3.3 10 16.2 N 24 33 13 18 1020.7 1020.7 0.0
18/11:30am 31.3 24.0 -6.0 8 16.2 NNW 24 33 13 18 1021.1 1021.1 0.0
18/11:00am 29.9 23.5 -1.6 13 14.6 NNE 22 30 12 16 1021.2 1021.2 0.0
18/10:30am 27.7 21.3 -1.4 15 13.3 NNE 22 28 12 15 1021.4 1021.4 0.0
18/10:00am 25.3 19.6 -0.6 18 11.8 NNE 19 24 10 13 1021.7 1021.7 0.0
18/09:30am 21.6 15.8 0.2 24 9.6 NNE 20 26 11 14 1021.8 1021.8 0.0
18/09:00am 20.0 14.4 0.1 26 8.8 N 19 24 10 13 1022.1 1022.1 0.0
18/08:30am 17.2 11.6 0.0 31 7.4 N 19 26 10 14 1022.4 1022.4 0.0
18/08:00am 14.7 9.6 0.9 39 5.9 N 17 20 9 11 1022.6 1022.6 0.0
18/07:30am 11.4 7.9 1.4 50 4.2 NNW 9 13 5 7 1022.3 1022.3 0.0
18/07:00am 9.9 6.0 1.2 54 3.6 NNW 11 13 6 7 1022.0 1022.0 0.0
18/06:30am 9.4 5.1 1.1 56 3.4 N 13 15 7 8 1021.7 1021.7 0.0
18/06:00am 9.4 5.5 1.4 57 3.3 N 11 13 6 7 1021.3 1021.3 0.0
18/05:30am 9.3 5.5 1.6 58 3.2 N 11 13 6 7 1021.1 1021.1 0.0
18/05:00am 9.2 6.1 1.4 58 3.2 N 7 9 4 5 1021.0 1021.0 0.0
18/04:30am 9.4 6.0 1.7 58 3.2 N 9 13 5 7 1021.0 1021.0 0.0
18/04:00am 8.6 4.7 1.2 59 3.0 NE 11 13 6 7 1021.2 1021.2 0.0
18/03:30am 9.9 7.1 2.0 58 3.3 N 6 7 3 4 1021.4 1021.4 0.0
18/03:00am 10.4 6.9 1.2 53 3.8 N 9 11 5 6 1021.4 1021.4 0.0
18/02:30am 11.5 7.6 0.9 48 4.4 N 11 13 6 7 1021.8 1021.8 0.0
18/02:00am 10.2 6.7 1.3 54 3.7 NNW 9 11 5 6 1021.9 1021.9 0.0
18/01:30am 11.0 7.5 1.1 50 4.1 N 9 11 5 6 1022.0 1022.0 0.0
18/01:00am 8.7 4.9 1.7 61 2.9 N 11 13 6 7 1021.9 1021.9 0.0
18/12:30am 10.1 6.2 1.4 55 3.6 NNW 11 13 6 7 1022.1 1022.1 0.0
18/12:00am 10.4 6.6 1.5 54 3.7 NNW 11 13 6 7 1022.2 1022.2 0.0
 
Date/Time
CDT
Tmp

°C
App
Tmp
°C
Dew
Point
°C
Rel
Hum
%
Delta-T

°C
Wind Press
QNH
hPa
Press
MSL
hPa
Rain
since
9 am
mm
Dir
 
Spd
km/h
Gust
km/h
Spd
kts
Gust
kts
17/11:30pm 8.3 5.3 2.0 64 2.6 NW 7 9 4 5 1022.3 1022.3 0.0
17/11:00pm 11.2 8.0 3.2 58 3.5 NW 9 11 5 6 1022.8 1022.8 0.0
17/10:30pm 12.8 9.2 2.8 50 4.4 NW 11 11 6 6 1022.7 1022.7 0.0
17/10:00pm 15.0 11.7 2.4 42 5.6 NW 9 13 5 7 1022.8 1022.8 0.0
17/09:30pm 16.5 12.7 1.9 37 6.5 NW 11 13 6 7 1022.8 1022.8 0.0
17/09:00pm 16.5 13.5 2.2 38 6.4 NNW 7 9 4 5 1022.4 1022.4 0.0
17/08:30pm 18.3 16.2 3.8 38 6.8 ESE 4 7 2 4 1022.2 1022.2 0.0
17/08:00pm 20.3 17.9 2.4 30 8.3 ENE 4 11 2 6 1022.0 1022.0 0.0
17/07:30pm 21.3 18.8 3.8 31 8.4 E 6 11 3 6 1021.6 1021.6 0.0
17/07:00pm 23.8 20.1 2.4 24 10.2 ENE 11 13 6 7 1021.4 1021.4 0.0
17/06:30pm 25.5 22.1 1.8 21 11.3 ENE 9 13 5 7 1021.4 1021.4 0.0
17/06:00pm 26.1 21.8 0.8 19 11.9 NNE 13 17 7 9 1021.3 1021.3 0.0
17/05:30pm 26.2 22.7 1.0 19 11.9 NNE 9 20 5 11 1021.3 1021.3 0.0
17/05:00pm 26.4 21.7 1.1 19 12.0 NE 15 20 8 11 1021.1 1021.1 0.0
17/04:30pm 26.7 22.5 1.7 19 12.0 NE 13 19 7 10 1021.3 1021.3 0.0
17/04:00pm 25.8 20.8 1.3 20 11.6 ENE 17 20 9 11 1021.4 1021.4 0.0
17/03:30pm 25.5 20.5 1.4 20 11.4 N 17 24 9 13 1021.8 1021.8 0.0

Latest Capital City Observations: Canberra | Sydney | Melbourne | Brisbane | Adelaide | Perth | Hobart | Darwin

Other Formats:

Comma delimited format used in spreadsheet applications
http://www.bom.gov.au/fwo/IDS60901/IDS60901.95818.axf

JavaScript Object Notation format (JSON) in row-major order
http://www.bom.gov.au/fwo/IDS60901/IDS60901.95818.json